Time;durP1;ratioP1;P1;durP2;ratioP2;P2;SDS_P1;SDS_P2;PMS_P1;PMS_P2;Temp;Humidity;BMP_temperature;BMP_pressure;BME280_temperature;BME280_humidity;BME280_pressure;Samples;Min_cycle;Max_cycle;Signal;HPM_P1;HPM_P2
2022/06/02 00:00:07;;;;;;;;;;;;;;;9.78;100.00;-25340.63;5034632;28;19921;-77
2022/06/02 00:02:42;;;;;;;;;;;;;;;9.77;100.00;-25340.47;5034472;28;19967;-77
2022/06/02 00:05:23;;;;;;;;;;;;;;;9.75;100.00;-25339.88;5034738;28;19917;-77
2022/06/02 00:07:58;;;;;;;;;;;;;;;9.74;100.00;-25339.59;5049962;28;20429;-77
2022/06/02 00:10:30;;;;;;;;;;;;;;;9.65;100.00;-25336.94;5054683;28;20398;-78
2022/06/02 00:13:00;;;;;;;;;;;;;;;9.64;100.00;-25336.81;5035344;28;20381;-77
2022/06/02 00:15:35;;;;;;;;;;;;;;;9.57;100.00;-25334.75;5034445;28;19921;-76
2022/06/02 00:18:06;;;;;;;;;;;;;;;9.56;100.00;-25334.44;5049272;28;19946;-77
2022/06/02 00:20:41;;;;;;;;;;;;;;;9.58;100.00;-25334.88;5047251;28;19913;-77
2022/06/02 00:23:27;;;;;;;;;;;;;;;9.56;100.00;-25334.31;5035231;28;19924;-77
2022/06/02 00:26:11;;;;;;;;;;;;;;;9.45;100.00;-25331.22;5066826;28;19917;-77
2022/06/02 00:28:53;;;;;;;;;;;;;;;9.38;100.00;-25329.16;5056287;28;19920;-77
2022/06/02 00:31:37;;;;;;;;;;;;;;;9.37;100.00;-25328.88;5055164;28;20013;-77
2022/06/02 00:34:11;;;;;;;;;;;;;;;9.43;100.00;-25330.63;5054957;28;20007;-76
2022/06/02 00:36:37;;;;;;;;;;;;;;;9.43;100.00;-25330.63;5061439;28;20273;-77
2022/06/02 00:39:03;;;;;;;;;;;;;;;9.36;100.00;-25328.72;5095175;28;19931;-77
2022/06/02 00:41:37;;;;;;;;;;;;;;;9.38;100.00;-25329.16;5066644;28;20003;-77
2022/06/02 00:44:04;;;;;;;;;;;;;;;9.34;100.00;-25328.13;5056275;28;20341;-77
2022/06/02 00:46:33;;;;;;;;;;;;;;;9.33;100.00;-25327.84;5053441;28;19963;-77
2022/06/02 00:49:21;;;;;;;;;;;;;;;9.29;100.00;-25326.81;5053997;28;19948;-77
2022/06/02 00:52:17;;;;;;;;;;;;;;;9.33;100.00;-25327.97;5053371;28;19916;-78
2022/06/02 00:57:37;;;;;;;;;;;;;;;9.26;100.00;-25325.78;5054136;28;19974;-77
2022/06/02 01:00:11;;;;;;;;;;;;;;;9.22;100.00;-25324.59;5053371;28;19924;-77
2022/06/02 01:02:45;;;;;;;;;;;;;;;9.20;100.00;-25324.00;5052395;28;19917;-76
2022/06/02 01:05:11;;;;;;;;;;;;;;;9.11;100.00;-25321.50;5041985;28;19925;-77
2022/06/02 01:07:55;;;;;;;;;;;;;;;9.12;100.00;-25321.97;5038574;28;19982;-77
2022/06/02 01:10:24;;;;;;;;;;;;;;;9.12;100.00;-25321.81;5073542;28;19923;-80
2022/06/02 01:12:49;;;;;;;;;;;;;;;9.15;100.00;-25322.69;5073002;28;19927;-77
2022/06/02 01:15:34;;;;;;;;;;;;;;;9.12;100.00;-25321.97;5072499;28;19917;-77
2022/06/02 01:18:18;;;;;;;;;;;;;;;9.09;100.00;-25320.94;5073252;28;19916;-77
2022/06/02 01:20:51;;;;;;;;;;;;;;;9.03;100.00;-25319.16;5072526;28;20269;-77
2022/06/02 01:23:16;;;;;;;;;;;;;;;9.04;100.00;-25319.59;5072572;28;19968;-77
2022/06/02 01:25:59;;;;;;;;;;;;;;;9.05;100.00;-25319.75;5071548;28;19917;-77
2022/06/02 01:28:24;;;;;;;;;;;;;;;9.01;100.00;-25318.56;5073339;28;19946;-77
2022/06/02 01:30:59;;;;;;;;;;;;;;;9.01;100.00;-25318.56;5072736;28;19916;-77
2022/06/02 01:33:30;;;;;;;;;;;;;;;9.00;100.00;-25318.28;5071581;28;19941;-77
2022/06/02 01:36:04;;;;;;;;;;;;;;;9.02;100.00;-25318.88;5058953;28;19921;-77
2022/06/02 01:38:38;;;;;;;;;;;;;;;8.92;100.00;-25316.22;5033511;28;19917;-77
2022/06/02 01:41:25;;;;;;;;;;;;;;;8.98;100.00;-25318.00;5050845;28;20400;-77
2022/06/02 01:44:02;;;;;;;;;;;;;;;8.97;100.00;-25317.69;5071918;28;20399;-76
2022/06/02 01:46:40;;;;;;;;;;;;;;;8.91;100.00;-25315.94;5072058;28;20297;-77
2022/06/02 01:49:16;;;;;;;;;;;;;;;8.94;100.00;-25316.66;5032288;28;19913;-78
2022/06/02 01:51:48;;;;;;;;;;;;;;;8.91;100.00;-25315.94;5032215;28;20051;-78
2022/06/02 01:54:19;;;;;;;;;;;;;;;8.82;100.00;-25313.28;5038047;28;20184;-77
2022/06/02 01:56:52;;;;;;;;;;;;;;;8.81;100.00;-25313.00;5051997;28;19923;-77
2022/06/02 01:59:40;;;;;;;;;;;;;;;8.79;100.00;-25312.53;5052152;28;20404;-77
2022/06/02 02:02:05;;;;;;;;;;;;;;;8.77;100.00;-25311.81;5065577;28;19920;-76
2022/06/02 02:04:53;;;;;;;;;;;;;;;8.77;100.00;-25311.81;5060572;28;20007;-77
2022/06/02 02:07:31;;;;;;;;;;;;;;;8.70;100.00;-25309.91;5051903;28;19917;-77
2022/06/02 02:10:14;;;;;;;;;;;;;;;8.82;100.00;-25313.13;5052119;28;19924;-76
2022/06/02 02:12:39;;;;;;;;;;;;;;;8.85;100.00;-25314.16;5052003;28;19916;-77
2022/06/02 02:15:12;;;;;;;;;;;;;;;8.88;100.00;-25315.03;5044721;28;19921;-77
2022/06/02 02:17:41;;;;;;;;;;;;;;;8.86;100.00;-25314.47;5039435;28;19983;-77
2022/06/02 02:20:06;;;;;;;;;;;;;;;8.84;100.00;-25313.72;5051854;28;19924;-77
2022/06/02 02:22:54;;;;;;;;;;;;;;;8.80;100.00;-25312.69;5052844;28;20297;-77
2022/06/02 02:25:34;;;;;;;;;;;;;;;8.81;100.00;-25313.00;5051614;28;19920;-77
2022/06/02 02:28:10;;;;;;;;;;;;;;;8.81;100.00;-25313.00;5052249;28;20371;-76
2022/06/02 02:30:42;;;;;;;;;;;;;;;8.79;100.00;-25312.41;5052021;28;19947;-77
2022/06/02 02:33:16;;;;;;;;;;;;;;;8.78;100.00;-25312.09;5051737;28;19921;-78
2022/06/02 02:35:42;;;;;;;;;;;;;;;8.68;100.00;-25309.16;5047224;28;19967;-78
2022/06/02 02:38:13;;;;;;;;;;;;;;;8.71;100.00;-25310.03;5031624;28;20007;-76
2022/06/02 02:40:43;;;;;;;;;;;;;;;8.68;100.00;-25309.16;5031757;28;20400;-77
2022/06/02 02:43:09;;;;;;;;;;;;;;;8.65;100.00;-25308.28;5031720;28;20007;-77
2022/06/02 02:45:47;;;;;;;;;;;;;;;8.59;100.00;-25306.66;5042182;28;19925;-76
2022/06/02 02:48:12;;;;;;;;;;;;;;;8.53;100.00;-25305.03;5051205;28;20054;-77
2022/06/02 02:50:51;;;;;;;;;;;;;;;8.49;100.00;-25303.84;5051347;28;20298;-77
2022/06/02 02:53:16;;;;;;;;;;;;;;;8.47;100.00;-25303.28;5051499;28;19963;-77
2022/06/02 02:55:55;;;;;;;;;;;;;;;8.50;100.00;-25304.16;5048699;28;19925;-77
2022/06/02 02:58:27;;;;;;;;;;;;;;;8.53;100.00;-25305.03;5051721;28;19917;-77
2022/06/02 03:01:13;;;;;;;;;;;;;;;8.50;100.00;-25304.00;5050619;28;19928;-76
2022/06/02 03:03:46;;;;;;;;;;;;;;;8.48;100.00;-25303.41;5050617;28;19917;-76
2022/06/02 03:06:26;;;;;;;;;;;;;;;8.41;100.00;-25301.66;5051063;28;19920;-77
2022/06/02 03:08:52;;;;;;;;;;;;;;;8.38;100.00;-25300.75;5051357;28;19917;-77
2022/06/02 03:11:23;;;;;;;;;;;;;;;8.39;100.00;-25301.06;5051681;28;19923;-77
2022/06/02 03:13:59;;;;;;;;;;;;;;;8.38;100.00;-25300.75;5050940;28;19967;-77
2022/06/02 03:16:24;;;;;;;;;;;;;;;8.38;100.00;-25300.63;5057393;28;19924;-77
2022/06/02 03:18:53;;;;;;;;;;;;;;;8.37;100.00;-25300.47;5032740;28;19925;-77
2022/06/02 03:21:40;;;;;;;;;;;;;;;8.41;100.00;-25301.50;5051463;28;20290;-77
2022/06/02 03:24:27;;;;;;;;;;;;;;;8.31;100.00;-25298.56;5051737;28;20357;-77
2022/06/02 03:26:52;;;;;;;;;;;;;;;8.30;100.00;-25298.41;5064005;28;20601;-77
2022/06/02 03:29:26;;;;;;;;;;;;;;;8.27;100.00;-25297.66;5036496;28;19949;-77
2022/06/02 03:31:56;;;;;;;;;;;;;;;8.31;100.00;-25298.69;5050631;28;19917;-76
2022/06/02 03:34:37;;;;;;;;;;;;;;;8.35;100.00;-25299.88;5044092;28;19928;-77
2022/06/02 03:37:11;;;;;;;;;;;;;;;8.36;100.00;-25300.19;5053593;28;19921;-77
2022/06/02 03:39:55;;;;;;;;;;;;;;;8.40;100.00;-25301.22;5056422;28;19924;-77
2022/06/02 03:42:28;;;;;;;;;;;;;;;8.44;100.00;-25302.38;5073141;28;19916;-77
2022/06/02 03:45:32;;;;;;;;;;;;;;;8.40;100.00;-25301.22;5069241;28;20013;-77
2022/06/02 03:48:05;;;;;;;;;;;;;;;8.41;100.00;-25301.50;5015786;28;20001;-77
2022/06/02 03:50:39;;;;;;;;;;;;;;;8.53;100.00;-25304.88;5008694;28;20400;-77
2022/06/02 03:53:25;;;;;;;;;;;;;;;8.60;100.00;-25307.09;5023937;28;20285;-77
2022/06/02 03:56:04;;;;;;;;;;;;;;;8.70;100.00;-25309.75;5054252;28;19921;-77
2022/06/02 03:58:29;;;;;;;;;;;;;;;8.76;100.00;-25311.66;5074318;28;19939;-77
2022/06/02 04:01:00;;;;;;;;;;;;;;;8.77;100.00;-25311.94;5074194;28;20356;-77
2022/06/02 04:03:45;;;;;;;;;;;;;;;9.48;100.00;-25332.25;5074204;28;19917;-76
2022/06/02 04:06:23;;;;;;;;;;;;;;;11.11;100.00;-25378.63;5053782;28;20258;-77
2022/06/02 04:08:53;;;;;;;;;;;;;;;12.44;100.00;-25416.53;5054035;28;19920;-76
2022/06/02 04:14:42;;;;;;;;;;;;;;;14.43;100.00;-25472.91;5068345;28;20027;-77
2022/06/02 04:17:13;;;;;;;;;;;;;;;15.27;100.00;-25496.78;5073407;28;19980;-76
2022/06/02 04:22:38;;;;;;;;;;;;;;;16.65;100.00;-25535.88;5054410;28;20018;-76
2022/06/02 04:25:09;;;;;;;;;;;;;;;16.97;100.00;-25544.72;5063896;28;19920;-77
2022/06/02 04:27:43;;;;;;;;;;;;;;;17.47;100.00;-13329.53;5074237;28;20394;-77
2022/06/02 04:30:08;;;;;;;;;;;;;;;17.89;100.00;12589.16;5050324;28;19943;-77
2022/06/02 04:32:52;;;;;;;;;;;;;;;18.11;100.00;45760.69;5034871;28;20603;-75
2022/06/02 04:35:27;;;;;;;;;;;;;;;18.15;100.00;113282.25;5052960;28;19923;-76
2022/06/02 04:38:12;;;;;;;;;;;;;;;19.08;100.00;147524.09;5054107;28;19940;-74
2022/06/02 04:40:40;;;;;;;;;;;;;;;19.37;100.00;147597.06;5036040;28;20074;-75
2022/06/02 04:43:18;;;;;;;;;;;;;;;19.43;100.00;147611.13;5070868;28;19931;-76
2022/06/02 04:45:46;;;;;;;;;;;;;;;19.72;100.00;147682.84;5071753;28;19920;-75
2022/06/02 04:48:24;;;;;;;;;;;;;;;20.09;100.00;147776.38;5062398;28;19955;-75
2022/06/02 04:50:55;;;;;;;;;;;;;;;20.60;100.00;147903.19;5054799;28;19943;-75
2022/06/02 04:53:21;;;;;;;;;;;;;;;20.90;100.00;147977.56;5060087;28;19923;-77
2022/06/02 04:55:47;;;;;;;;;;;;;;;20.90;100.00;147976.28;5057384;28;19917;-76
2022/06/02 04:58:21;;;;;;;;;;;;;;;20.80;100.00;147951.91;5055085;28;19920;-76
2022/06/02 05:00:51;;;;;;;;;;;;;;;21.00;100.00;148001.91;5034689;28;19928;-78
2022/06/02 05:03:41;;;;;;;;;;;;;;;21.25;100.00;148063.41;5035502;28;19912;-76
2022/06/02 05:06:15;;;;;;;;;;;;;;;20.45;100.00;147866.03;5014354;28;19927;-77
2022/06/02 05:08:43;;;;;;;;;;;;;;;20.61;100.00;147904.47;5043692;28;19930;-76
2022/06/02 05:11:21;;;;;;;;;;;;;;;21.55;100.00;148139.13;5073777;28;19923;-76
2022/06/02 05:14:03;;;;;;;;;;;;;;;20.42;100.00;147858.34;5071931;28;20474;-77
2022/06/02 05:16:31;;;;;;;;;;;;;;;19.14;100.00;147538.16;5054963;28;19916;-76
2022/06/02 05:18:59;;;;;;;;;;;;;;;18.24;100.00;147315.47;5059266;28;19943;-76
2022/06/02 05:21:48;;;;;;;;;;;;;;;18.11;100.00;147283.47;5064529;28;19916;-77
2022/06/02 05:24:14;;;;;;;;;;;;;;;16.78;100.00;146950.97;5030270;28;19920;-78
2022/06/02 05:26:45;;;;;;;;;;;;;;;16.17;100.00;146800.25;5074952;28;19916;-78
2022/06/02 05:29:34;;;;;;;;;;;;;;;15.81;100.00;146709.59;5082012;28;19924;-75
2022/06/02 05:32:12;;;;;;;;;;;;;;;15.16;100.00;146548.69;5030226;28;19916;-78
2022/06/02 05:34:37;;;;;;;;;;;;;;;15.24;100.00;146570.41;5066004;28;19930;-78
2022/06/02 05:37:26;;;;;;;;;;;;;;;14.72;100.00;146440.22;5070489;28;20018;-77
2022/06/02 05:39:54;;;;;;;;;;;;;;;14.87;100.00;146477.25;5037548;28;19920;-77
2022/06/02 05:42:43;;;;;;;;;;;;;;;15.34;100.00;146593.38;5055497;28;19970;-78
2022/06/02 05:45:11;;;;;;;;;;;;;;;15.13;100.00;146542.28;5058144;28;19927;-78
2022/06/02 05:47:57;;;;;;;;;;;;;;;14.76;100.00;146450.44;5056913;28;19917;-78
2022/06/02 05:50:22;;;;;;;;;;;;;;;14.45;100.00;146373.84;5064026;28;20015;-76
2022/06/02 05:53:06;;;;;;;;;;;;;;;14.17;100.00;146304.94;5045964;28;20356;-76
2022/06/02 05:55:34;;;;;;;;;;;;;;;14.19;100.00;146308.78;5045122;28;19920;-78
2022/06/02 05:58:03;;;;;;;;;;;;;;;14.33;100.00;133339.91;5069592;28;20284;-78
2022/06/02 06:00:35;;;;;;;;;;;;;;;14.48;100.00;123130.16;5058443;28;19971;-78
2022/06/02 06:03:20;;;;;;;;;;;;;;;14.63;100.00;111922.66;5060689;28;19927;-78
2022/06/02 06:06:04;;;;;;;;;;;;;;;14.63;100.00;112943.19;5060945;28;19920;-77
2022/06/02 06:08:41;;;;;;;;;;;;;;;14.69;100.00;100045.00;5054851;28;19917;-77
2022/06/02 06:11:27;;;;;;;;;;;;;;;14.60;100.00;104440.97;5050781;28;19921;-78
2022/06/02 06:14:11;;;;;;;;;;;;;;;14.63;100.00;108862.56;5050338;28;19928;-78
2022/06/02 06:16:45;;;;;;;;;;;;;;;14.39;100.00;110516.50;5034424;28;20019;-77
2022/06/02 06:19:15;;;;;;;;;;;;;;;14.67;100.00;101059.97;5037934;28;19917;-77
2022/06/02 06:21:46;;;;;;;;;;;;;;;14.87;100.00;107546.94;5055782;28;19916;-77
2022/06/02 06:24:24;;;;;;;;;;;;;;;14.77;100.00;118759.22;5062471;28;19920;-78
2022/06/02 06:26:57;;;;;;;;;;;;;;;14.84;100.00;127643.69;5062991;28;20253;-78
2022/06/02 06:29:43;;;;;;;;;;;;;;;14.82;100.00;144948.84;5072340;28;19917;-78
2022/06/02 06:32:14;;;;;;;;;;;;;;;14.80;100.00;137551.16;5057723;28;19927;-78
2022/06/02 06:35:07;;;;;;;;;;;;;;;14.32;100.00;136072.47;5050970;28;19975;-77
2022/06/02 06:37:44;;;;;;;;;;;;;;;14.36;100.00;120720.63;5032139;28;19971;-76
2022/06/02 06:40:28;;;;;;;;;;;;;;;14.55;100.00;114968.81;5041923;28;19924;-76
2022/06/02 06:43:08;;;;;;;;;;;;;;;14.22;100.00;99286.53;5064129;28;19928;-76
2022/06/02 06:45:46;;;;;;;;;;;;;;;14.08;100.00;101973.06;5052103;28;19917;-78
2022/06/02 06:48:30;;;;;;;;;;;;;;;14.13;100.00;91823.75;5053932;28;19925;-77
2022/06/02 06:51:09;;;;;;;;;;;;;;;14.13;100.00;86754.91;5054301;28;19916;-76
2022/06/02 06:53:47;;;;;;;;;;;;;;;14.47;100.00;82077.63;5050332;28;19925;-77
2022/06/02 06:56:24;;;;;;;;;;;;;;;14.78;100.00;90235.34;5045791;28;19917;-78
2022/06/02 06:59:08;;;;;;;;;;;;;;;14.74;100.00;85494.38;5053624;28;19927;-79
2022/06/02 07:01:52;;;;;;;;;;;;;;;14.07;100.00;102311.16;5038459;28;19921;-76
2022/06/02 07:04:19;;;;;;;;;;;;;;;13.84;100.00;94483.03;5075129;28;19912;-77
2022/06/02 07:06:48;;;;;;;;;;;;;;;13.59;100.00;80602.88;5074851;28;19917;-78
2022/06/02 07:09:32;;;;;;;;;;;;;;;13.75;100.00;74899.69;5076675;28;19920;-78
2022/06/02 07:14:59;;;;;;;;;;;;;;;14.83;100.00;71672.66;5059289;28;20349;-76
2022/06/02 07:17:37;;;;;;;;;;;;;;;16.89;100.00;129461.03;5056506;28;19930;-78
2022/06/02 07:20:12;;;;;;;;;;;;;;;18.09;100.00;147277.09;5055473;28;19917;-79
2022/06/02 07:22:43;;;;;;;;;;;;;;;19.09;100.00;147526.63;5043211;28;19917;-78
2022/06/02 07:25:08;;;;;;;;;;;;;;;18.72;100.00;147434.47;5070810;28;19964;-78
2022/06/02 07:27:38;;;;;;;;;;;;;;;19.59;100.00;147650.78;5075498;28;20369;-77
2022/06/02 07:30:15;;;;;;;;;;;;;;;19.90;100.00;147729.00;5057928;28;19921;-78
2022/06/02 07:32:43;;;;;;;;;;;;;;;19.02;100.00;147508.72;5085236;28;20291;-79
2022/06/02 07:35:14;;;;;;;;;;;;;;;19.72;100.00;147684.09;5055353;28;20364;-78
2022/06/02 07:37:49;;;;;;;;;;;;;;;20.19;100.00;147800.69;5074199;28;19916;-76
2022/06/02 07:40:14;;;;;;;;;;;;;;;20.46;100.00;147867.28;5056265;28;19946;-79
2022/06/02 07:42:59;;;;;;;;;;;;;;;21.26;100.00;148067.28;5075577;28;20308;-78
2022/06/02 07:45:42;;;;;;;;;;;;;;;20.56;100.00;147892.94;5090212;28;20814;-78
2022/06/02 07:48:26;;;;;;;;;;;;;;;19.25;100.00;147565.03;5074510;28;19912;-78
2022/06/02 07:50:55;;;;;;;;;;;;;;;20.51;100.00;147878.81;5054329;28;19920;-79
2022/06/02 07:53:40;;;;;;;;;;;;;;;20.77;100.00;147945.53;5056123;28;19928;-77
2022/06/02 07:56:05;;;;;;;;;;;;;;;21.55;100.00;148137.81;5039868;28;19924;-77
2022/06/02 07:58:54;;;;;;;;;;;;;;;21.57;100.00;148142.97;5037089;28;19917;-77
2022/06/02 08:01:19;;;;;;;;;;;;;;;21.35;100.00;148089.06;5039653;28;19926;-77
2022/06/02 08:03:51;;;;;;;;;;;;;;;21.12;100.00;148032.66;5055989;28;19916;-77
2022/06/02 08:06:16;;;;;;;;;;;;;;;20.40;100.00;147851.91;5056085;28;19917;-77
2022/06/02 08:08:57;;;;;;;;;;;;;;;20.47;100.00;147868.59;5055064;28;19921;-75
2022/06/02 08:11:28;;;;;;;;;;;;;;;20.66;100.00;147917.31;5055624;28;19916;-77
2022/06/02 08:14:01;;;;;;;;;;;;;;;21.33;100.00;148085.22;5055074;28;19943;-76
2022/06/02 08:16:32;;;;;;;;;;;;;;;19.04;100.00;147513.84;5055275;28;19912;-77
2022/06/02 08:19:01;;;;;;;;;;;;;;;19.16;100.00;147543.28;5056331;28;19981;-77
2022/06/02 08:21:44;;;;;;;;;;;;;;;18.80;100.00;147454.94;5073683;28;20303;-77
2022/06/02 08:24:09;;;;;;;;;;;;;;;17.46;100.00;147119.75;5055246;28;20010;-76
2022/06/02 08:26:41;;;;;;;;;;;;;;;17.81;100.00;147208.00;5055568;28;20019;-77
2022/06/02 08:29:06;;;;;;;;;;;;;;;18.69;100.00;147425.47;5055385;28;19920;-76
2022/06/02 08:31:47;;;;;;;;;;;;;;;19.67;100.00;147670.00;5072896;28;19917;-77
2022/06/02 08:34:29;;;;;;;;;;;;;;;20.63;100.00;147910.88;5055715;28;19921;-76
2022/06/02 08:37:13;;;;;;;;;;;;;;;21.03;100.00;148008.31;5055348;28;19920;-77
2022/06/02 08:39:59;;;;;;;;;;;;;;;21.09;100.00;148024.97;5055296;28;19954;-76
2022/06/02 08:42:44;;;;;;;;;;;;;;;21.69;100.00;148173.75;5024782;28;19920;-77
2022/06/02 08:45:27;;;;;;;;;;;;;;;21.34;100.00;148087.75;5054915;28;19916;-77
2022/06/02 08:47:53;;;;;;;;;;;;;;;20.90;100.00;147976.28;5055407;28;20002;-77
2022/06/02 08:50:37;;;;;;;;;;;;;;;20.60;100.00;147903.19;5054564;28;19979;-77
2022/06/02 08:53:03;;;;;;;;;;;;;;;20.08;100.00;147772.53;5054564;28;19924;-77
2022/06/02 08:55:40;;;;;;;;;;;;;;;20.07;100.00;147771.25;5055452;28;20000;-77
2022/06/02 08:58:30;;;;;;;;;;;;;;;19.65;100.00;147664.91;5054745;28;19916;-78
2022/06/02 09:01:05;;;;;;;;;;;;;;;19.97;100.00;147745.63;5055265;28;20015;-77
2022/06/02 09:03:57;;;;;;;;;;;;;;;19.57;100.00;147645.69;5054443;28;20011;-76
2022/06/02 09:06:37;;;;;;;;;;;;;;;19.61;100.00;147655.94;5054975;28;19917;-76
2022/06/02 09:09:22;;;;;;;;;;;;;;;19.18;100.00;147549.66;5055026;28;19916;-77
2022/06/02 09:12:02;;;;;;;;;;;;;;;19.66;100.00;147668.72;5054223;28;20395;-78
2022/06/02 09:14:34;;;;;;;;;;;;;;;19.62;100.00;147658.47;5054788;28;20447;-77
2022/06/02 09:17:18;;;;;;;;;;;;;;;18.87;100.00;147471.59;5055177;28;19970;-76
2022/06/02 09:20:06;;;;;;;;;;;;;;;19.55;100.00;147640.56;5054165;28;19973;-77
2022/06/02 09:22:36;;;;;;;;;;;;;;;19.23;100.00;147559.91;5046448;28;19916;-76
2022/06/02 09:25:28;;;;;;;;;;;;;;;20.50;100.00;147876.28;5054123;28;20287;-77
2022/06/02 09:28:11;;;;;;;;;;;;;;;20.52;100.00;147881.41;5071681;28;19917;-77
2022/06/02 09:30:57;;;;;;;;;;;;;;;20.75;100.00;147940.38;5071970;28;19916;-78
2022/06/02 09:33:43;;;;;;;;;;;;;;;20.54;100.00;147886.50;5053993;28;19927;-78
2022/06/02 09:36:08;;;;;;;;;;;;;;;19.82;100.00;147708.47;5072872;28;20364;-78
2022/06/02 09:38:54;;;;;;;;;;;;;;;19.97;100.00;147745.63;5053820;28;19966;-77
2022/06/02 09:41:19;;;;;;;;;;;;;;;19.34;100.00;147589.38;5054181;28;19916;-77
2022/06/02 09:43:54;;;;;;;;;;;;;;;19.95;100.00;147740.50;5054738;28;19917;-78
2022/06/02 09:46:38;;;;;;;;;;;;;;;20.29;100.00;147825.06;5054856;28;19955;-76
2022/06/02 09:49:22;;;;;;;;;;;;;;;20.26;100.00;147817.38;5054360;28;19916;-78
2022/06/02 09:52:06;;;;;;;;;;;;;;;18.95;100.00;147492.06;5054692;28;19916;-78
2022/06/02 09:54:50;;;;;;;;;;;;;;;18.72;100.00;147433.16;5053317;28;20360;-78
2022/06/02 10:00:14;;;;;;;;;;;;;;;19.99;100.00;147750.72;5071590;28;19939;-78
2022/06/02 10:03:01;;;;;;;;;;;;;;;20.12;100.00;147781.47;5072168;28;20383;-78
2022/06/02 10:05:40;;;;;;;;;;;;;;;19.34;100.00;147589.38;5054822;28;19912;-77
2022/06/02 10:08:05;;;;;;;;;;;;;;;19.09;100.00;147526.63;5054329;28;19924;-78
2022/06/02 10:10:40;;;;;;;;;;;;;;;18.87;100.00;147470.34;5053854;28;20332;-77
2022/06/02 10:13:06;;;;;;;;;;;;;;;19.05;100.00;147516.41;5054438;28;19969;-78
2022/06/02 10:15:41;;;;;;;;;;;;;;;19.43;100.00;147611.13;5049962;28;20357;-77
2022/06/02 10:18:09;;;;;;;;;;;;;;;19.84;100.00;147712.31;5045652;28;19917;-78
2022/06/02 10:20:44;;;;;;;;;;;;;;;19.53;100.00;147636.75;5051539;28;19978;-76
2022/06/02 10:23:35;;;;;;;;;;;;;;;18.52;100.00;147384.56;5054521;28;19943;-77
2022/06/02 10:26:06;;;;;;;;;;;;;;;17.86;100.00;147220.75;5054683;28;19916;-78
2022/06/02 10:28:45;;;;;;;;;;;;;;;18.33;100.00;147335.94;5053571;28;20007;-77
2022/06/02 10:31:29;;;;;;;;;;;;;;;18.94;100.00;147489.53;5053847;28;19917;-77
2022/06/02 10:33:55;;;;;;;;;;;;;;;18.70;100.00;147428.06;5053941;28;19925;-77
2022/06/02 10:36:23;;;;;;;;;;;;;;;18.25;100.00;147318.00;5056684;28;19923;-77
2022/06/02 10:38:49;;;;;;;;;;;;;;;18.88;100.00;147472.88;5062036;28;19985;-77
2022/06/02 10:41:20;;;;;;;;;;;;;;;19.69;100.00;147675.16;5069286;28;19920;-76
2022/06/02 10:43:46;;;;;;;;;;;;;;;19.77;100.00;147694.41;5072821;28;19916;-79
2022/06/02 10:46:24;;;;;;;;;;;;;;;20.14;100.00;147787.91;5059123;28;19923;-78
2022/06/02 10:48:56;;;;;;;;;;;;;;;20.80;100.00;147951.91;5078193;28;19967;-78
2022/06/02 10:51:21;;;;;;;;;;;;;;;20.20;100.00;147802.00;5078441;28;19920;-77
2022/06/02 10:54:06;;;;;;;;;;;;;;;19.79;100.00;147699.53;5057536;28;19927;-78
2022/06/02 10:56:50;;;;;;;;;;;;;;;18.11;100.00;147283.47;5058507;28;19916;-79
2022/06/02 10:59:37;;;;;;;;;;;;;;;17.46;100.00;147121.03;5058037;28;20352;-78
2022/06/02 11:02:21;;;;;;;;;;;;;;;17.85;100.00;147216.94;5057634;28;19921;-79
2022/06/02 11:04:46;;;;;;;;;;;;;;;18.43;100.00;147361.53;5064675;28;19970;-77
2022/06/02 11:07:31;;;;;;;;;;;;;;;19.07;100.00;147521.53;5075732;28;20368;-77
2022/06/02 11:10:16;;;;;;;;;;;;;;;20.12;100.00;147782.78;5038470;28;19921;-78
2022/06/02 11:13:00;;;;;;;;;;;;;;;20.07;100.00;147769.94;5056669;28;19920;-78
2022/06/02 11:15:31;;;;;;;;;;;;;;;19.48;100.00;147622.63;5075698;28;19921;-77
2022/06/02 11:18:15;;;;;;;;;;;;;;;19.12;100.00;147534.31;5075910;28;19923;-77
2022/06/02 11:20:50;;;;;;;;;;;;;;;19.30;100.00;147579.13;5065203;28;19974;-77
2022/06/02 11:23:16;;;;;;;;;;;;;;;19.43;100.00;147609.84;5058218;28;19950;-77
2022/06/02 11:26:00;;;;;;;;;;;;;;;19.72;100.00;147682.84;5053263;28;19924;-77
2022/06/02 11:28:43;;;;;;;;;;;;;;;19.75;100.00;147690.53;5055005;28;19920;-77
2022/06/02 11:31:09;;;;;;;;;;;;;;;20.18;100.00;147798.16;5069727;28;20037;-77
2022/06/02 11:33:38;;;;;;;;;;;;;;;19.50;100.00;147627.78;5057675;28;20483;-77
2022/06/02 11:36:10;;;;;;;;;;;;;;;20.25;100.00;147814.78;5066429;28;19971;-79
2022/06/02 11:38:50;;;;;;;;;;;;;;;20.76;100.00;147941.69;5071585;28;20344;-78
2022/06/02 11:41:24;;;;;;;;;;;;;;;20.27;100.00;147821.22;5067714;28;19996;-77
2022/06/02 11:43:57;;;;;;;;;;;;;;;20.09;100.00;147775.09;5074678;28;19951;-78
2022/06/02 11:46:41;;;;;;;;;;;;;;;20.14;100.00;147786.63;5065946;28;19928;-77
2022/06/02 11:49:25;;;;;;;;;;;;;;;20.59;100.00;147899.34;5058930;28;19920;-76
2022/06/02 11:52:09;;;;;;;;;;;;;;;20.92;100.00;147982.66;5059923;28;19916;-78
2022/06/02 11:54:50;;;;;;;;;;;;;;;21.13;100.00;148035.22;5062065;28;20005;-76
2022/06/02 11:57:18;;;;;;;;;;;;;;;21.47;100.00;148119.84;5076563;28;20013;-77
2022/06/02 11:59:53;;;;;;;;;;;;;;;21.20;100.00;148050.63;5075203;28;20326;-77
2022/06/02 12:02:18;;;;;;;;;;;;;;;20.24;100.00;147812.22;5059882;28;20019;-76
2022/06/02 12:04:47;;;;;;;;;;;;;;;19.92;100.00;147732.84;5060071;28;19948;-77
2022/06/02 12:07:14;;;;;;;;;;;;;;;19.60;100.00;147652.09;5060940;28;19957;-77
2022/06/02 12:09:58;;;;;;;;;;;;;;;20.19;100.00;147800.69;5059884;28;19920;-77
2022/06/02 12:12:43;;;;;;;;;;;;;;;20.76;100.00;147942.94;5058429;28;19920;-77
2022/06/02 12:15:27;;;;;;;;;;;;;;;20.18;100.00;147798.16;5055945;28;19923;-76
2022/06/02 12:17:56;;;;;;;;;;;;;;;20.41;100.00;147854.50;5056741;28;19921;-75
2022/06/02 12:20:41;;;;;;;;;;;;;;;20.32;100.00;147831.44;5036018;28;19916;-75
2022/06/02 12:23:18;;;;;;;;;;;;;;;20.51;100.00;147878.81;5051155;28;19921;-76
2022/06/02 12:25:56;;;;;;;;;;;;;;;19.93;100.00;147735.38;5067780;28;20294;-76
2022/06/02 12:28:36;;;;;;;;;;;;;;;20.78;100.00;147946.81;5065623;28;19926;-74
2022/06/02 12:31:20;;;;;;;;;;;;;;;21.09;100.00;148024.97;5054069;28;19973;-76
2022/06/02 12:34:01;;;;;;;;;;;;;;;20.23;100.00;147809.69;5054879;28;20391;-77
2022/06/02 12:36:32;;;;;;;;;;;;;;;19.52;100.00;147632.91;5057575;28;19974;-75
2022/06/02 12:39:16;;;;;;;;;;;;;;;19.85;100.00;147714.88;5069369;28;19921;-76
2022/06/02 12:41:56;;;;;;;;;;;;;;;19.97;100.00;147744.38;5074706;28;19999;-75
2022/06/02 12:44:41;;;;;;;;;;;;;;;20.01;100.00;147755.88;5075909;28;19976;-76
2022/06/02 12:47:25;;;;;;;;;;;;;;;20.22;100.00;147807.09;5055056;28;19916;-75
2022/06/02 12:49:53;;;;;;;;;;;;;;;20.27;100.00;147821.22;5035501;28;19924;-77
2022/06/02 12:52:22;;;;;;;;;;;;;;;20.04;100.00;147763.56;5035416;28;20011;-75
2022/06/02 12:54:59;;;;;;;;;;;;;;;19.65;100.00;147666.16;5063459;28;19920;-75
2022/06/02 12:57:43;;;;;;;;;;;;;;;20.21;100.00;147804.53;5054273;28;19920;-76
2022/06/02 13:00:19;;;;;;;;;;;;;;;20.54;100.00;147887.81;5055130;28;20011;-76
2022/06/02 13:03:06;;;;;;;;;;;;;;;20.44;100.00;147862.19;5054543;28;19971;-74
2022/06/02 13:05:51;;;;;;;;;;;;;;;19.66;100.00;147668.72;5055041;28;20016;-74
2022/06/02 13:08:45;;;;;;;;;;;;;;;20.06;100.00;147767.41;5054974;28;20142;-75
2022/06/02 13:11:10;;;;;;;;;;;;;;;20.04;100.00;147763.56;5054481;28;19927;-77
2022/06/02 13:13:55;;;;;;;;;;;;;;;19.98;100.00;147748.19;5054205;28;19917;-76
2022/06/02 13:16:24;;;;;;;;;;;;;;;19.97;100.00;147745.63;5069781;28;19920;-75
2022/06/02 13:19:13;;;;;;;;;;;;;;;19.82;100.00;147707.19;5074393;28;20224;-76
2022/06/02 13:21:42;;;;;;;;;;;;;;;19.90;100.00;147727.69;5073363;28;19923;-77
2022/06/02 13:24:19;;;;;;;;;;;;;;;20.08;100.00;147772.53;5058055;28;19986;-76
2022/06/02 13:27:03;;;;;;;;;;;;;;;19.79;100.00;147700.78;5034634;28;19975;-75
2022/06/02 13:29:47;;;;;;;;;;;;;;;19.66;100.00;147667.47;5044452;28;19916;-76